Time;durP1;ratioP1;P1;durP2;ratioP2;P2;SDS_P1;SDS_P2;PMS_P1;PMS_P2;Temp;Humidity;BMP_temperature;BMP_pressure;BME280_temperature;BME280_humidity;BME280_pressure;Samples;Min_cycle;Max_cycle;Signal;HPM_P1;HPM_P2
2022/05/06 00:01:05;;;;;;;3.03;2.10;;;9.90;99.90;;;;;;5070679;28;20209;-51
2022/05/06 00:03:33;;;;;;;5.50;2.47;;;9.90;99.90;;;;;;5070979;28;20232;-52
2022/05/06 00:06:03;;;;;;;4.17;2.17;;;9.90;99.90;;;;;;5070849;28;20263;-51
2022/05/06 00:08:31;;;;;;;3.07;2.00;;;9.90;99.90;;;;;;5070537;28;20231;-52
2022/05/06 00:10:59;;;;;;;2.87;2.20;;;9.90;99.90;;;;;;5051791;28;20284;-52
2022/05/06 00:13:27;;;;;;;2.33;2.10;;;9.80;99.90;;;;;;5051171;28;20202;-52
2022/05/06 00:15:55;;;;;;;4.27;2.60;;;9.80;99.90;;;;;;5051782;28;20256;-51
2022/05/06 00:18:24;;;;;;;5.00;2.10;;;9.70;99.90;;;;;;5050703;28;20276;-52
2022/05/06 00:20:52;;;;;;;4.50;2.43;;;9.70;99.90;;;;;;5051629;28;20241;-52
2022/05/06 00:23:21;;;;;;;2.40;2.00;;;9.70;99.90;;;;;;5068322;28;20292;-51
2022/05/06 00:25:49;;;;;;;3.23;2.10;;;9.70;99.90;;;;;;5071330;28;20244;-52
2022/05/06 00:28:18;;;;;;;2.87;2.43;;;9.70;99.90;;;;;;5070908;28;20771;-51
2022/05/06 00:30:46;;;;;;;3.10;2.60;;;9.70;99.90;;;;;;5070833;28;20240;-51
2022/05/06 00:33:14;;;;;;;2.80;1.97;;;9.60;99.90;;;;;;5069851;28;20208;-52
2022/05/06 00:35:42;;;;;;;2.50;2.17;;;9.60;99.90;;;;;;5071080;28;20205;-51
2022/05/06 00:38:10;;;;;;;2.33;2.13;;;9.60;99.90;;;;;;5070870;28;20275;-52
2022/05/06 00:40:39;;;;;;;2.10;1.90;;;9.60;99.90;;;;;;5071291;28;20232;-52
2022/05/06 00:43:07;;;;;;;3.13;2.20;;;9.60;99.90;;;;;;5070073;28;20827;-52
2022/05/06 00:45:45;;;;;;;4.23;2.37;;;9.50;99.90;;;;;;5071195;28;20859;-52
2022/05/06 00:48:14;;;;;;;3.67;2.57;;;9.50;99.90;;;;;;5070946;28;20295;-52
2022/05/06 00:50:42;;;;;;;3.07;2.37;;;9.50;99.90;;;;;;5070996;28;20259;-51
2022/05/06 00:53:11;;;;;;;4.40;2.20;;;9.40;99.90;;;;;;5070554;28;20262;-52
2022/05/06 00:55:40;;;;;;;4.63;2.27;;;9.40;99.90;;;;;;5070537;28;20240;-52
2022/05/06 00:58:09;;;;;;;3.07;2.50;;;9.40;99.90;;;;;;5070897;28;20264;-52
2022/05/06 01:00:37;;;;;;;2.63;2.40;;;9.40;99.90;;;;;;5070276;28;20205;-52
2022/05/06 01:03:05;;;;;;;3.23;2.50;;;9.30;99.90;;;;;;5070566;28;20201;-51
2022/05/06 01:05:33;;;;;;;5.03;2.47;;;9.30;99.90;;;;;;5070362;28;20227;-52
2022/05/06 01:08:03;;;;;;;3.47;2.27;;;9.30;99.90;;;;;;5070279;28;20315;-52
2022/05/06 01:10:31;;;;;;;3.40;2.27;;;9.30;99.90;;;;;;5069617;28;21013;-51
2022/05/06 01:13:01;;;;;;;4.07;2.30;;;9.30;99.90;;;;;;5070183;28;20236;-52
2022/05/06 01:15:30;;;;;;;4.00;2.27;;;9.30;99.90;;;;;;5069822;28;20204;-52
2022/05/06 01:17:59;;;;;;;2.60;2.40;;;9.20;99.90;;;;;;5071068;28;20256;-52
2022/05/06 01:20:28;;;;;;;3.63;2.57;;;9.20;99.90;;;;;;5070477;28;20211;-51
2022/05/06 01:22:59;;;;;;;4.33;2.40;;;9.10;99.90;;;;;;5069832;28;20210;-51
2022/05/06 01:25:28;;;;;;;2.77;2.43;;;9.10;99.90;;;;;;5070837;28;20209;-51
2022/05/06 01:28:00;;;;;;;3.67;2.33;;;9.10;99.90;;;;;;5070629;28;20225;-51
2022/05/06 01:30:32;;;;;;;3.07;2.50;;;9.10;99.90;;;;;;5069464;28;20204;-52
2022/05/06 01:33:01;;;;;;;4.03;2.10;;;9.00;99.90;;;;;;5070056;28;20707;-52
2022/05/06 01:35:31;;;;;;;3.20;2.30;;;9.00;99.90;;;;;;5070776;28;20262;-51
2022/05/06 01:38:04;;;;;;;2.67;2.47;;;9.00;99.90;;;;;;5070410;28;20642;-52
2022/05/06 01:40:39;;;;;;;4.50;2.67;;;8.90;99.90;;;;;;5070710;28;20212;-51
2022/05/06 01:43:11;;;;;;;3.57;3.10;;;8.90;99.90;;;;;;5070209;28;20650;-52
2022/05/06 01:45:42;;;;;;;2.47;2.20;;;8.90;99.90;;;;;;5074321;28;20274;-51
2022/05/06 01:48:10;;;;;;;2.30;2.10;;;8.80;99.90;;;;;;5074732;28;20316;-52
2022/05/06 01:50:41;;;;;;;2.67;2.40;;;8.80;99.90;;;;;;5074438;28;20254;-52
2022/05/06 01:53:14;;;;;;;3.70;2.70;;;8.80;99.90;;;;;;5074222;28;20274;-52
2022/05/06 01:55:42;;;;;;;2.87;2.20;;;8.70;99.90;;;;;;5074441;28;20682;-52
2022/05/06 01:58:11;;;;;;;4.47;2.50;;;8.70;99.90;;;;;;5074455;28;20291;-51
2022/05/06 02:00:39;;;;;;;2.97;2.67;;;8.60;99.90;;;;;;5074151;28;20216;-52
2022/05/06 02:05:16;;;;;;;3.13;2.83;;;8.50;99.90;;;;;;5074114;28;20258;-51
2022/05/06 02:05:54;;;;;;;3.80;2.43;;;8.50;99.90;;;;;;5073259;28;20728;-52
2022/05/06 02:08:23;;;;;;;3.77;2.60;;;8.50;99.90;;;;;;5074215;28;20287;-51
2022/05/06 02:10:51;;;;;;;4.13;3.00;;;8.50;99.90;;;;;;5054094;28;20243;-51
2022/05/06 02:13:19;;;;;;;4.57;2.77;;;8.40;99.90;;;;;;5054102;28;20271;-52
2022/05/06 02:15:47;;;;;;;3.40;2.90;;;8.40;99.90;;;;;;5053678;28;20691;-52
2022/05/06 02:18:16;;;;;;;2.90;2.63;;;8.40;99.90;;;;;;5053935;28;20233;-52
2022/05/06 02:20:44;;;;;;;3.67;2.80;;;8.40;99.90;;;;;;5064607;28;20229;-52
2022/05/06 02:23:12;;;;;;;4.80;3.10;;;8.40;99.90;;;;;;5073527;28;20236;-52
2022/05/06 02:25:42;;;;;;;3.53;2.87;;;8.40;99.90;;;;;;5073740;28;20231;-52
2022/05/06 02:28:10;;;;;;;3.47;2.60;;;8.40;99.90;;;;;;5074155;28;20663;-52
2022/05/06 02:33:26;;;;;;;3.10;2.80;;;8.30;99.90;;;;;;5073628;28;20185;-52
2022/05/06 02:35:55;;;;;;;3.43;2.83;;;8.30;99.90;;;;;;5073671;28;20704;-52
2022/05/06 02:38:23;;;;;;;3.67;2.90;;;8.30;99.90;;;;;;5073350;28;20221;-52
2022/05/06 02:40:53;;;;;;;3.70;2.77;;;8.20;99.90;;;;;;5073628;28;20250;-51
2022/05/06 02:43:21;;;;;;;3.90;3.33;;;8.20;99.90;;;;;;5073087;28;20247;-51
2022/05/06 02:45:49;;;;;;;6.03;2.90;;;8.20;99.90;;;;;;5073562;28;20727;-52
2022/05/06 02:48:18;;;;;;;4.27;2.90;;;8.10;99.90;;;;;;5073630;28;20220;-52
2022/05/06 02:50:47;;;;;;;3.20;2.90;;;8.10;99.90;;;;;;5073231;28;20681;-52
2022/05/06 02:53:15;;;;;;;8.07;3.10;;;8.10;99.90;;;;;;5072546;28;20254;-51
2022/05/06 02:55:43;;;;;;;4.40;2.97;;;8.00;99.90;;;;;;5071515;28;20262;-51
2022/05/06 02:58:12;;;;;;;4.83;2.93;;;8.00;99.90;;;;;;5072115;28;20258;-52
2022/05/06 03:00:40;;;;;;;4.30;2.93;;;8.00;99.90;;;;;;5072269;28;20775;-51
2022/05/06 03:03:08;;;;;;;3.07;2.77;;;8.00;99.90;;;;;;5072757;28;20590;-52
2022/05/06 03:05:37;;;;;;;3.87;2.80;;;8.00;99.90;;;;;;5072984;28;20220;-51
2022/05/06 03:08:05;;;;;;;3.53;2.70;;;7.90;99.90;;;;;;5072807;28;20781;-52
2022/05/06 03:10:34;;;;;;;4.07;2.90;;;7.80;99.90;;;;;;5072189;28;20215;-52
2022/05/06 03:13:02;;;;;;;4.23;3.00;;;7.80;99.90;;;;;;5073020;28;20270;-51
2022/05/06 03:15:31;;;;;;;4.67;3.30;;;7.80;99.90;;;;;;5073061;28;20308;-51
2022/05/06 03:18:00;;;;;;;3.83;2.80;;;7.70;99.90;;;;;;5073025;28;20257;-51
2022/05/06 03:20:29;;;;;;;5.30;3.27;;;7.70;99.90;;;;;;5073015;28;20596;-51
2022/05/06 03:22:57;;;;;;;6.73;2.97;;;7.70;99.90;;;;;;5072761;28;20707;-51
2022/05/06 03:25:25;;;;;;;3.63;3.30;;;7.70;99.90;;;;;;5072951;28;20714;-51
2022/05/06 03:28:08;;;;;;;4.87;2.77;;;7.70;99.90;;;;;;5072868;28;20267;-52
2022/05/06 03:30:39;;;;;;;6.13;3.13;;;7.60;99.90;;;;;;5071432;28;20236;-51
2022/05/06 03:33:09;;;;;;;5.13;3.33;;;7.60;99.90;;;;;;5072732;28;20209;-50
2022/05/06 03:35:39;;;;;;;5.30;3.67;;;7.60;99.90;;;;;;5072700;28;20208;-51
2022/05/06 03:38:07;;;;;;;4.50;3.30;;;7.60;99.90;;;;;;5072935;28;20267;-51
2022/05/06 03:40:35;;;;;;;8.30;3.27;;;7.60;99.90;;;;;;5072974;28;20253;-51
2022/05/06 03:43:04;;;;;;;4.87;3.40;;;7.60;99.90;;;;;;5071824;28;20235;-51
2022/05/06 03:45:32;;;;;;;4.07;3.03;;;7.50;99.90;;;;;;5064598;28;20743;-51
2022/05/06 03:48:02;;;;;;;6.20;3.30;;;7.50;99.90;;;;;;5052768;28;20328;-51
2022/05/06 03:53:16;;;;;;;4.87;3.47;;;7.40;99.90;;;;;;5071997;28;20230;-51
2022/05/06 03:55:45;;;;;;;3.77;3.40;;;7.40;99.90;;;;;;5072230;28;20208;-51
2022/05/06 03:58:13;;;;;;;5.30;4.30;;;7.40;99.90;;;;;;5071914;28;20259;-51
2022/05/06 04:00:41;;;;;;;5.20;3.10;;;7.40;99.90;;;;;;5071878;28;20225;-51
2022/05/06 04:03:11;;;;;;;3.53;3.20;;;7.40;99.90;;;;;;5071929;28;20217;-51
2022/05/06 04:05:39;;;;;;;4.70;3.37;;;7.50;99.90;;;;;;5071660;28;20245;-52
2022/05/06 04:08:07;;;;;;;4.33;3.67;;;7.50;99.90;;;;;;5070912;28;20850;-51
2022/05/06 04:10:35;;;;;;;4.97;3.93;;;7.60;99.90;;;;;;5053254;28;20577;-51
2022/05/06 04:13:03;;;;;;;4.33;3.57;;;7.60;99.90;;;;;;5051562;28;20240;-52
2022/05/06 04:15:32;;;;;;;5.07;3.77;;;7.60;99.90;;;;;;5051110;28;20245;-52
2022/05/06 04:18:01;;;;;;;4.10;3.27;;;7.60;99.90;;;;;;5051877;28;20236;-51
2022/05/06 04:23:31;;;;;;;5.03;3.30;;;7.70;99.90;;;;;;5051574;28;20232;-52
2022/05/06 04:26:00;;;;;;;4.60;4.00;;;7.70;99.90;;;;;;5051701;28;20190;-51
2022/05/06 04:28:29;;;;;;;5.37;3.90;;;7.80;99.90;;;;;;5052199;28;20282;-51
2022/05/06 04:30:58;;;;;;;4.93;3.03;;;8.30;99.90;;;;;;5070298;28;20253;-51
2022/05/06 04:33:27;;;;;;;3.73;3.13;;;9.00;99.90;;;;;;5071101;28;20236;-52
2022/05/06 04:35:57;;;;;;;6.53;3.10;;;9.50;99.90;;;;;;5070981;28;20213;-51
2022/05/06 04:38:26;;;;;;;3.43;3.03;;;10.00;99.90;;;;;;5071222;28;20274;-52
2022/05/06 04:40:55;;;;;;;3.43;2.83;;;10.30;99.90;;;;;;5071146;28;20285;-51
2022/05/06 04:43:23;;;;;;;3.90;2.80;;;10.30;99.90;;;;;;5071003;28;20201;-52
2022/05/06 04:45:52;;;;;;;4.60;2.90;;;10.80;99.90;;;;;;5060994;28;20233;-52
2022/05/06 04:48:20;;;;;;;5.97;3.00;;;11.10;99.90;;;;;;5051193;28;20225;-51
2022/05/06 04:50:49;;;;;;;4.23;2.77;;;11.50;99.90;;;;;;5051246;28;20644;-52
2022/05/06 04:53:19;;;;;;;4.07;2.90;;;12.00;99.90;;;;;;5050821;28;20848;-51
2022/05/06 04:55:48;;;;;;;6.90;2.63;;;12.30;99.90;;;;;;5051269;28;20237;-52
2022/05/06 04:58:17;;;;;;;4.33;2.60;;;12.50;99.90;;;;;;5051474;28;20751;-51
2022/05/06 05:00:46;;;;;;;2.60;2.40;;;12.90;99.90;;;;;;5050881;28;20225;-52
2022/05/06 05:03:14;;;;;;;2.77;2.33;;;13.20;99.90;;;;;;5050843;28;20212;-52
2022/05/06 05:05:43;;;;;;;4.73;2.40;;;13.60;99.90;;;;;;5050779;28;20573;-51
2022/05/06 05:08:11;;;;;;;5.97;2.90;;;13.90;99.90;;;;;;5068989;28;20232;-51
2022/05/06 05:10:40;;;;;;;3.50;2.55;;;14.10;99.90;;;;;;5071067;28;20197;-51
2022/05/06 05:13:08;;;;;;;6.50;3.13;;;14.40;99.90;;;;;;5070458;28;20977;-52
2022/05/06 05:15:36;;;;;;;5.78;2.80;;;15.00;99.90;;;;;;5071105;28;20641;-51
2022/05/06 05:18:05;;;;;;;4.40;2.95;;;15.20;99.90;;;;;;5070890;28;20252;-52
2022/05/06 05:20:33;;;;;;;3.10;2.80;;;15.30;99.90;;;;;;5070461;28;20224;-52
2022/05/06 05:23:01;;;;;;;4.22;2.80;;;15.50;99.90;;;;;;5070576;28;20263;-51
2022/05/06 05:25:30;;;;;;;3.22;2.70;;;15.70;99.90;;;;;;5070809;28;20748;-52
2022/05/06 05:27:59;;;;;;;4.82;2.78;;;16.00;99.90;;;;;;5070182;28;20228;-52
2022/05/06 05:30:27;;;;;;;4.38;2.90;;;16.40;99.90;;;;;;5069856;28;20201;-51
2022/05/06 05:32:55;;;;;;;3.08;2.47;;;16.40;99.90;;;;;;5070096;28;20217;-52
2022/05/06 05:35:24;;;;;;;5.13;3.13;;;16.70;99.90;;;;;;5066680;28;20220;-51
2022/05/06 05:37:52;;;;;;;3.97;2.60;;;16.80;99.90;;;;;;5053454;28;20645;-52
2022/05/06 05:40:20;;;;;;;2.58;2.38;;;17.00;99.90;;;;;;5066043;28;20228;-52
2022/05/06 05:42:48;;;;;;;4.75;2.85;;;17.00;99.90;;;;;;5070247;28;20189;-52
2022/05/06 05:48:21;;;;;;;4.10;2.70;;;16.00;99.90;;;;;;5070915;28;20224;-52
2022/05/06 05:50:49;;;;;;;4.22;3.10;;;15.90;99.90;;;;;;5070277;28;20266;-51
2022/05/06 05:53:17;;;;;;;3.25;2.97;;;16.10;99.90;;;;;;5070280;28;20291;-52
2022/05/06 05:55:46;;;;;;;3.72;3.00;;;16.00;99.90;;;;;;5070349;28;20220;-52
2022/05/06 05:58:14;;;;;;;3.75;3.35;;;15.60;99.90;;;;;;5070065;28;20256;-53
2022/05/06 06:00:43;;;;;;;5.82;3.20;;;15.10;99.90;;;;;;5069992;28;20228;-52
2022/05/06 06:03:11;;;;;;;3.28;2.97;;;15.10;99.90;;;;;;5070122;28;20209;-52
2022/05/06 06:05:39;;;;;;;5.40;3.38;;;15.50;99.90;;;;;;5070169;28;20213;-52
2022/05/06 06:08:08;;;;;;;6.53;3.13;;;15.90;99.90;;;;;;5070693;28;20221;-52
2022/05/06 06:10:36;;;;;;;4.25;3.25;;;15.80;99.90;;;;;;5069949;28;20708;-53
2022/05/06 06:13:04;;;;;;;4.72;3.60;;;16.30;99.90;;;;;;5070014;28;20205;-52
2022/05/06 06:15:33;;;;;;;5.97;3.30;;;16.90;99.90;;;;;;5070243;28;20303;-52
2022/05/06 06:18:02;;;;;;;5.07;3.20;;;17.30;99.90;;;;;;5069947;28;20225;-53
2022/05/06 06:20:31;;;;;;;3.78;3.25;;;17.70;99.90;;;;;;5070250;28;20208;-53
2022/05/06 06:22:59;;;;;;;4.13;2.97;;;18.10;99.90;;;;;;5069550;28;20227;-53
2022/05/06 06:25:27;;;;;;;4.97;3.30;;;18.70;99.90;;;;;;5070181;28;20243;-54
2022/05/06 06:27:55;;;;;;;3.40;3.10;;;18.80;99.90;;;;;;5070256;28;20774;-53
2022/05/06 06:30:23;;;;;;;5.25;3.10;;;19.10;99.90;;;;;;5069857;28;20248;-53
2022/05/06 06:32:53;;;;;;;3.47;2.90;;;19.40;99.90;;;;;;5073432;28;20197;-52
2022/05/06 06:35:23;;;;;;;3.72;2.70;;;19.80;99.90;;;;;;5073321;28;20209;-52
2022/05/06 06:37:51;;;;;;;3.95;3.17;;;20.30;99.90;;;;;;5073738;28;20668;-53
2022/05/06 06:40:19;;;;;;;4.07;3.00;;;20.30;99.90;;;;;;5073605;28;20244;-53
2022/05/06 06:42:47;;;;;;;4.70;3.05;;;20.30;99.90;;;;;;5067551;28;20272;-53
2022/05/06 06:45:15;;;;;;;4.10;3.17;;;20.40;99.90;;;;;;5060447;28;20236;-52
2022/05/06 06:47:44;;;;;;;7.28;3.10;;;20.50;99.90;;;;;;5073427;28;20225;-52
2022/05/06 06:50:12;;;;;;;6.07;3.50;;;20.80;99.90;;;;;;5053157;28;20289;-53
2022/05/06 06:52:41;;;;;;;5.63;3.30;;;20.90;99.90;;;;;;5052939;28;20198;-53
2022/05/06 06:55:10;;;;;;;3.45;3.00;;;21.20;99.90;;;;;;5053131;28;20206;-53
2022/05/06 06:57:39;;;;;;;5.05;3.35;;;21.40;99.90;;;;;;5052903;28;20890;-53
2022/05/06 07:00:10;;;;;;;5.63;3.45;;;21.50;99.90;;;;;;5053068;28;20210;-52
2022/05/06 07:02:40;;;;;;;5.88;3.00;;;21.60;99.90;;;;;;5062034;28;20243;-52
2022/05/06 07:05:09;;;;;;;3.72;2.92;;;21.60;99.90;;;;;;5072850;28;20705;-53
2022/05/06 07:13:35;;;;;;;3.92;3.15;;;21.70;99.90;;;;;;5072356;28;20296;-54
2022/05/06 07:16:03;;;;;;;3.50;3.03;;;21.70;99.90;;;;;;5072804;28;20204;-53
2022/05/06 07:18:32;;;;;;;4.38;3.63;;;21.70;99.90;;;;;;5073107;28;20201;-53
2022/05/06 07:21:00;;;;;;;4.72;2.90;;;21.70;99.90;;;;;;5072640;28;20227;-53
2022/05/06 07:23:28;;;;;;;3.60;3.30;;;22.00;99.90;;;;;;5072254;28;20259;-53
2022/05/06 07:25:57;;;;;;;6.03;3.38;;;22.30;99.90;;;;;;5073170;28;20267;-53
2022/05/06 07:28:26;;;;;;;6.68;3.40;;;22.20;99.70;;;;;;5072725;28;20229;-52
2022/05/06 07:30:54;;;;;;;4.10;3.13;;;22.40;99.90;;;;;;5072693;28;20270;-53
2022/05/06 07:33:22;;;;;;;6.65;3.42;;;22.40;99.90;;;;;;5072474;28;20197;-53
2022/05/06 07:35:50;;;;;;;4.65;3.13;;;22.70;99.50;;;;;;5072858;28;20237;-53
2022/05/06 07:38:18;;;;;;;4.13;3.00;;;22.60;99.10;;;;;;5072986;28;20268;-53
2022/05/06 07:40:46;;;;;;;6.45;3.30;;;22.70;99.90;;;;;;5072534;28;20216;-53
2022/05/06 07:43:15;;;;;;;4.18;2.95;;;22.60;98.20;;;;;;5065539;28;20221;-53
2022/05/06 07:45:43;;;;;;;3.70;2.80;;;22.80;98.80;;;;;;5061308;28;20205;-53
2022/05/06 07:48:13;;;;;;;5.50;3.00;;;23.00;96.50;;;;;;5072301;28;20212;-53
2022/05/06 07:50:44;;;;;;;5.22;2.85;;;23.10;96.00;;;;;;5071846;28;20208;-53
2022/05/06 07:53:13;;;;;;;3.60;2.65;;;23.20;94.70;;;;;;5072003;28;20212;-53
2022/05/06 07:55:48;;;;;;;3.20;2.90;;;22.90;95.20;;;;;;5071659;28;20461;-53
2022/05/06 07:58:18;;;;;;;5.50;3.00;;;22.80;94.50;;;;;;5071965;28;20582;-53
2022/05/06 08:00:46;;;;;;;3.67;2.70;;;22.70;94.10;;;;;;5071849;28;20205;-52
2022/05/06 08:06:06;;;;;;;6.70;2.20;;;22.20;93.50;;;;;;5071621;28;20231;-51
2022/05/06 08:08:34;;;;;;;3.50;2.28;;;21.80;91.80;;;;;;5071646;28;20240;-52
2022/05/06 08:11:02;;;;;;;3.97;2.28;;;21.40;89.10;;;;;;5072045;28;20271;-52
2022/05/06 08:13:31;;;;;;;3.75;2.53;;;21.20;88.20;;;;;;5071136;28;20201;-52
2022/05/06 08:15:59;;;;;;;2.47;2.25;;;21.00;86.40;;;;;;5071705;28;20205;-52
2022/05/06 08:18:28;;;;;;;6.60;2.22;;;21.00;86.50;;;;;;5071651;28;20236;-52
2022/05/06 08:20:57;;;;;;;3.47;2.30;;;20.80;85.90;;;;;;5071363;28;20235;-52
2022/05/06 08:23:25;;;;;;;4.30;2.55;;;20.80;84.80;;;;;;5058444;28;20304;-52
2022/05/06 08:25:54;;;;;;;2.55;1.90;;;20.60;85.70;;;;;;5063690;28;20262;-52
2022/05/06 08:28:22;;;;;;;5.10;2.30;;;20.50;87.90;;;;;;5071481;28;20274;-52
2022/05/06 08:30:52;;;;;;;3.72;2.70;;;20.50;85.90;;;;;;5070336;28;20230;-52
2022/05/06 08:33:21;;;;;;;3.65;2.80;;;20.20;84.10;;;;;;5070982;28;20739;-52
2022/05/06 08:35:49;;;;;;;5.05;2.50;;;20.20;84.80;;;;;;5071251;28;20217;-52
2022/05/06 08:38:17;;;;;;;3.88;2.30;;;20.30;85.40;;;;;;5071501;28;20221;-52
2022/05/06 08:40:48;;;;;;;4.65;2.97;;;20.30;86.00;;;;;;5070427;28;20296;-57
2022/05/06 08:43:17;;;;;;;2.55;2.30;;;20.30;84.30;;;;;;5071271;28;20225;-52
2022/05/06 08:51:31;;;;;;;3.13;2.38;;;20.10;82.50;;;;;;5071102;28;20235;-53
2022/05/06 08:54:00;;;;;;;3.70;2.28;;;20.10;82.30;;;;;;5070252;28;20184;-52
2022/05/06 08:56:29;;;;;;;3.95;2.30;;;20.10;81.00;;;;;;5070921;28;20255;-52
2022/05/06 08:58:57;;;;;;;4.13;2.60;;;20.20;81.30;;;;;;5070330;28;20208;-52
2022/05/06 09:01:27;;;;;;;4.10;2.55;;;20.10;80.90;;;;;;5070398;28;20205;-52
2022/05/06 09:03:56;;;;;;;5.13;2.30;;;20.10;82.90;;;;;;5070249;28;20282;-52
2022/05/06 09:06:26;;;;;;;2.55;2.17;;;20.10;82.50;;;;;;5070762;28;20240;-52
2022/05/06 09:08:59;;;;;;;3.30;2.13;;;20.20;81.50;;;;;;5070975;28;20223;-52
2022/05/06 09:14:16;;;;;;;4.05;2.47;;;19.60;81.10;;;;;;5070962;28;20212;-52
2022/05/06 09:16:46;;;;;;;2.67;1.88;;;19.60;82.00;;;;;;5070877;28;20247;-52
2022/05/06 09:19:23;;;;;;;3.92;2.15;;;19.30;82.20;;;;;;5071104;28;20205;-52
2022/05/06 09:22:11;;;;;;;4.45;2.10;;;19.00;82.10;;;;;;5070152;28;20270;-52
2022/05/06 09:24:40;;;;;;;2.78;1.98;;;18.70;83.30;;;;;;5070539;28;20215;-50
2022/05/06 09:27:10;;;;;;;2.60;2.15;;;18.70;84.00;;;;;;5071047;28;20278;-51
2022/05/06 09:29:40;;;;;;;3.00;2.13;;;18.60;84.50;;;;;;5070205;28;20255;-51
2022/05/06 09:32:19;;;;;;;3.05;2.03;;;18.60;84.10;;;;;;5065058;28;20205;-53
2022/05/06 09:34:48;;;;;;;4.45;2.20;;;18.60;84.40;;;;;;5049519;28;20263;-53
2022/05/06 09:37:37;;;;;;;3.40;2.17;;;18.60;84.70;;;;;;5050310;28;20261;-52
2022/05/06 09:40:08;;;;;;;2.35;2.15;;;18.70;83.80;;;;;;5050211;28;20209;-53
2022/05/06 09:42:38;;;;;;;3.70;2.00;;;19.00;86.20;;;;;;5049921;28;20275;-50
2022/05/06 09:45:07;;;;;;;2.90;1.90;;;19.20;84.00;;;;;;5054848;28;20201;-51
2022/05/06 09:47:38;;;;;;;3.78;2.20;;;19.40;83.10;;;;;;5053861;28;20260;-51
2022/05/06 09:50:08;;;;;;;2.05;1.83;;;19.60;85.10;;;;;;5050457;28;20277;-53
2022/05/06 09:52:37;;;;;;;2.72;2.05;;;19.80;83.90;;;;;;5049627;28;20247;-52
2022/05/06 09:55:07;;;;;;;4.72;1.92;;;20.00;86.60;;;;;;5054570;28;20662;-52
2022/05/06 09:57:37;;;;;;;15.32;3.40;;;19.90;85.50;;;;;;5050272;28;20264;-53
2022/05/06 10:00:07;;;;;;;3.15;2.03;;;20.20;88.30;;;;;;5050825;28;20263;-53
2022/05/06 10:02:38;;;;;;;2.10;1.90;;;19.70;83.50;;;;;;5065604;28;20254;-50
2022/05/06 10:05:09;;;;;;;3.88;2.00;;;19.40;83.90;;;;;;5069445;28;20650;-52
2022/05/06 10:07:41;;;;;;;2.17;1.73;;;19.50;83.30;;;;;;5073170;28;20580;-53
2022/05/06 10:10:16;;;;;;;3.42;1.83;;;19.60;88.00;;;;;;5073684;28;20887;-53
2022/05/06 10:12:52;;;;;;;2.28;1.58;;;20.00;87.70;;;;;;5073675;28;20212;-51
2022/05/06 10:15:22;;;;;;;1.63;1.50;;;20.10;80.70;;;;;;5073606;28;20676;-53
2022/05/06 10:17:53;;;;;;;1.92;1.60;;;20.10;82.30;;;;;;5073860;28;20607;-53
2022/05/06 10:20:58;;;;;;;2.42;1.40;;;20.20;81.60;;;;;;5073582;28;20719;-53
2022/05/06 10:23:47;;;;;;;4.85;1.80;;;20.30;81.70;;;;;;5073313;28;20256;-53
2022/05/06 10:26:45;;;;;;;5.70;2.00;;;20.10;83.80;;;;;;5073866;28;20216;-53
2022/05/06 10:32:56;;;;;;;2.67;1.77;;;19.70;81.40;;;;;;5073116;28;20677;-52
2022/05/06 10:35:38;;;;;;;2.20;2.00;;;19.50;81.90;;;;;;5073726;28;20216;-53
2022/05/06 10:38:23;;;;;;;3.42;2.05;;;19.40;81.10;;;;;;5073469;28;20295;-53
2022/05/06 10:41:02;;;;;;;3.03;1.83;;;19.30;82.20;;;;;;5073799;28;20277;-52
2022/05/06 10:43:50;;;;;;;2.25;1.60;;;19.60;82.60;;;;;;5072630;28;20299;-53
2022/05/06 10:46:41;;;;;;;1.83;1.50;;;20.10;81.50;;;;;;5059437;28;20204;-53
2022/05/06 10:49:50;;;;;;;2.00;1.80;;;20.40;81.00;;;;;;5053277;28;20229;-53
2022/05/06 10:52:42;;;;;;;2.13;1.60;;;20.50;84.40;;;;;;5052784;28;20701;-53
2022/05/06 10:55:13;;;;;;;2.95;1.75;;;20.90;88.70;;;;;;5053448;28;20206;-53
2022/05/06 10:58:06;;;;;;;4.05;1.85;;;21.20;83.30;;;;;;5053557;28;20221;-53
2022/05/06 11:00:38;;;;;;;3.92;1.80;;;21.40;82.20;;;;;;5053241;28;20233;-53
2022/05/06 11:03:06;;;;;;;2.72;1.95;;;21.40;84.80;;;;;;5051411;28;20647;-53
2022/05/06 11:05:35;;;;;;;5.10;2.20;;;21.20;83.20;;;;;;5052391;28;20271;-53
2022/05/06 11:08:07;;;;;;;2.80;1.92;;;21.10;81.00;;;;;;5057482;28;20217;-52
2022/05/06 11:10:36;;;;;;;3.45;2.03;;;20.90;83.80;;;;;;5071511;28;20224;-53
2022/05/06 11:13:26;;;;;;;2.97;1.98;;;20.80;85.30;;;;;;5072109;28;20212;-53
2022/05/06 11:15:55;;;;;;;2.05;1.83;;;20.60;83.50;;;;;;5073150;28;20263;-52
2022/05/06 11:18:24;;;;;;;4.32;1.98;;;20.60;84.00;;;;;;5072086;28;20256;-53
2022/05/06 11:20:52;;;;;;;2.83;2.13;;;20.70;85.60;;;;;;5071420;28;20300;-53
2022/05/06 11:23:30;;;;;;;3.42;2.05;;;20.70;84.00;;;;;;5072609;28;20208;-52
2022/05/06 11:25:58;;;;;;;3.92;2.40;;;20.40;82.40;;;;;;5072834;28;20237;-53
2022/05/06 11:28:29;;;;;;;3.42;2.17;;;20.30;83.00;;;;;;5072583;28;20229;-53
2022/05/06 11:30:57;;;;;;;2.58;1.90;;;20.40;82.60;;;;;;5072528;28;20205;-53
2022/05/06 11:33:27;;;;;;;3.00;2.08;;;20.40;81.90;;;;;;5072206;28;20209;-53
2022/05/06 11:36:01;;;;;;;7.03;2.50;;;20.50;80.60;;;;;;5072403;28;20633;-53
2022/05/06 11:38:33;;;;;;;3.75;2.28;;;20.60;80.40;;;;;;5072639;28;20224;-53
2022/05/06 11:41:09;;;;;;;3.00;2.40;;;20.70;80.00;;;;;;5072540;28;20262;-53
2022/05/06 11:43:37;;;;;;;4.22;2.17;;;20.70;79.50;;;;;;5071939;28;20232;-53
2022/05/06 11:48:51;;;;;;;2.65;1.98;;;20.50;82.20;;;;;;5072004;28;20261;-53
2022/05/06 11:51:24;;;;;;;2.70;1.88;;;20.50;80.00;;;;;;5072287;28;20795;-53
2022/05/06 11:53:54;;;;;;;2.00;1.80;;;20.70;80.70;;;;;;5071450;28;20205;-53
2022/05/06 11:56:23;;;;;;;2.80;1.85;;;20.70;81.30;;;;;;5072192;28;20240;-53
2022/05/06 11:58:53;;;;;;;2.80;1.80;;;21.00;83.60;;;;;;5071766;28;20262;-53
2022/05/06 12:01:28;;;;;;;3.58;1.80;;;21.00;83.20;;;;;;5072290;28;20204;-53
2022/05/06 12:04:00;;;;;;;4.82;1.80;;;20.90;79.80;;;;;;5071082;28;20281;-53
2022/05/06 12:06:38;;;;;;;2.28;1.90;;;20.70;78.60;;;;;;5071737;28;20631;-53
2022/05/06 12:09:13;;;;;;;3.00;1.90;;;20.50;79.80;;;;;;5071933;28;20682;-53
2022/05/06 12:11:42;;;;;;;2.00;1.80;;;20.50;79.70;;;;;;5051845;28;20674;-52
2022/05/06 12:14:13;;;;;;;3.33;2.13;;;20.60;77.90;;;;;;5066795;28;20205;-53
2022/05/06 12:16:55;;;;;;;2.55;1.90;;;20.60;78.90;;;;;;5071807;28;20307;-53
2022/05/06 12:19:34;;;;;;;4.50;2.17;;;20.90;80.00;;;;;;5071145;28;20190;-53
2022/05/06 12:22:10;;;;;;;5.40;1.92;;;21.00;78.70;;;;;;5071337;28;20216;-52
2022/05/06 12:24:47;;;;;;;3.05;2.00;;;21.30;79.50;;;;;;5071516;28;20247;-53
2022/05/06 12:27:24;;;;;;;2.05;1.85;;;21.40;78.80;;;;;;5071762;28;20224;-53
2022/05/06 12:29:53;;;;;;;3.45;1.73;;;21.50;78.10;;;;;;5071018;28;20232;-53
2022/05/06 12:32:21;;;;;;;1.90;1.70;;;21.40;76.90;;;;;;5070865;28;20254;-53
2022/05/06 12:35:05;;;;;;;2.50;1.77;;;21.20;77.40;;;;;;5071369;28;20247;-53
2022/05/06 12:37:34;;;;;;;2.88;1.55;;;20.90;77.10;;;;;;5071197;28;20311;-53
2022/05/06 12:40:05;;;;;;;2.95;1.60;;;20.80;78.20;;;;;;5071691;28;20207;-53
2022/05/06 12:42:33;;;;;;;3.65;2.05;;;20.80;81.30;;;;;;5071061;28;20213;-53
2022/05/06 12:45:21;;;;;;;1.90;1.80;;;20.70;78.30;;;;;;5064910;28;20213;-52
2022/05/06 12:50:46;;;;;;;3.08;1.95;;;20.70;78.50;;;;;;5009153;28;20256;-52
2022/05/06 12:53:14;;;;;;;3.25;1.70;;;20.70;78.40;;;;;;5056316;28;20240;-52
2022/05/06 12:55:43;;;;;;;3.97;1.90;;;20.70;80.20;;;;;;5071054;28;20197;-52
2022/05/06 12:58:12;;;;;;;3.30;1.50;;;20.90;83.60;;;;;;5071223;28;20225;-52
2022/05/06 13:00:40;;;;;;;3.50;1.70;;;21.20;84.90;;;;;;5071111;28;20209;-53
2022/05/06 13:03:08;;;;;;;2.90;1.75;;;21.40;87.10;;;;;;5070867;28;20201;-53
2022/05/06 13:05:37;;;;;;;2.45;1.63;;;21.60;83.80;;;;;;5070168;28;20225;-52
2022/05/06 13:08:06;;;;;;;1.65;1.55;;;21.60;83.90;;;;;;5071109;28;20668;-52
2022/05/06 13:10:35;;;;;;;2.95;1.50;;;21.20;79.80;;;;;;5063672;28;20205;-53
2022/05/06 13:13:04;;;;;;;3.25;1.75;;;21.00;78.00;;;;;;5069630;28;20228;-53
2022/05/06 13:15:32;;;;;;;2.55;1.50;;;21.20;80.60;;;;;;5070739;28;20709;-53
2022/05/06 13:18:01;;;;;;;3.35;1.67;;;21.50;82.70;;;;;;5069048;28;20259;-52
2022/05/06 13:20:29;;;;;;;3.38;1.58;;;21.80;82.90;;;;;;5071312;28;20321;-53
2022/05/06 13:22:57;;;;;;;3.55;1.60;;;21.90;79.80;;;;;;5070265;28;20244;-53
2022/05/06 13:25:25;;;;;;;2.22;1.60;;;21.90;78.40;;;;;;5070882;28;20725;-52
2022/05/06 13:27:53;;;;;;;2.63;1.60;;;22.00;76.00;;;;;;5070779;28;20225;-53
2022/05/06 13:30:23;;;;;;;1.98;1.50;;;22.00;78.70;;;;;;5055043;28;20209;-53
2022/05/06 13:32:51;;;;;;;2.60;1.55;;;21.80;79.90;;;;;;5050184;28;20240;-53
2022/05/06 13:35:19;;;;;;;2.50;2.22;;;21.40;77.00;;;;;;5049818;28;20262;-52
2022/05/06 13:37:47;;;;;;;1.95;1.65;;;21.00;77.20;;;;;;5049997;28;20299;-53
2022/05/06 13:40:15;;;;;;;3.25;1.70;;;20.70;78.00;;;;;;5052006;28;20217;-52
2022/05/06 13:42:43;;;;;;;5.03;2.10;;;20.60;77.80;;;;;;5054449;28;20232;-52
2022/05/06 13:45:11;;;;;;;3.00;1.58;;;20.60;79.90;;;;;;5059255;28;20204;-52